Time;durP1;ratioP1;P1;durP2;ratioP2;P2;SDS_P1;SDS_P2;PMS_P1;PMS_P2;Temp;Humidity;BMP_temperature;BMP_pressure;BME280_temperature;BME280_humidity;BME280_pressure;Samples;Min_cycle;Max_cycle;Signal;HPM_P1;HPM_P2
2022/04/27 00:00:18;;;;;;;13.68;9.88;;;9.70;99.90;;;;;;4918062;29;20464;-72
2022/04/27 00:02:44;;;;;;;10.40;9.05;;;9.70;99.90;;;;;;4934369;29;20028;-71
2022/04/27 00:05:10;;;;;;;12.52;8.88;;;9.70;99.90;;;;;;4934806;29;20394;-72
2022/04/27 00:07:37;;;;;;;10.60;8.75;;;9.70;99.90;;;;;;4917451;29;20044;-71
2022/04/27 00:10:04;;;;;;;12.05;9.20;;;9.70;99.90;;;;;;4917742;29;20488;-73
2022/04/27 00:12:30;;;;;;;10.70;8.02;;;9.70;99.90;;;;;;4934626;29;20453;-72
2022/04/27 00:14:56;;;;;;;10.90;8.48;;;9.60;99.90;;;;;;4917259;29;20027;-72
2022/04/27 00:17:22;;;;;;;10.40;8.60;;;9.60;99.90;;;;;;4936050;29;20119;-72
2022/04/27 00:19:47;;;;;;;11.30;8.85;;;9.60;99.90;;;;;;4934479;29;20104;-73
2022/04/27 00:22:14;;;;;;;10.63;8.82;;;9.60;99.90;;;;;;4919038;29;20469;-72
2022/04/27 00:24:40;;;;;;;11.50;9.70;;;9.50;99.90;;;;;;4934816;29;20028;-73
2022/04/27 00:27:06;;;;;;;11.40;9.15;;;9.60;99.90;;;;;;4935153;29;20179;-74
2022/04/27 00:29:32;;;;;;;11.55;8.77;;;9.60;99.90;;;;;;4917741;29;20083;-72
2022/04/27 00:31:57;;;;;;;11.02;9.27;;;9.60;99.90;;;;;;4933780;29;20488;-72
2022/04/27 00:34:23;;;;;;;10.93;9.32;;;9.50;99.90;;;;;;4917385;29;20111;-73
2022/04/27 00:36:49;;;;;;;11.05;9.05;;;9.50;99.90;;;;;;4916787;29;20490;-71
2022/04/27 00:39:16;;;;;;;10.30;8.23;;;9.40;99.90;;;;;;4917311;29;20118;-71
2022/04/27 00:41:58;;;;;;;11.68;8.85;;;9.40;99.90;;;;;;4933944;29;20034;-71
2022/04/27 00:44:28;;;;;;;11.13;9.30;;;9.30;99.90;;;;;;4917931;29;20106;-71
2022/04/27 00:46:55;;;;;;;11.85;9.60;;;9.40;99.90;;;;;;4916550;29;20097;-71
2022/04/27 00:49:21;;;;;;;11.15;8.85;;;9.40;99.90;;;;;;4937576;29;20118;-72
2022/04/27 00:51:47;;;;;;;14.82;10.73;;;9.30;99.90;;;;;;4921460;29;20481;-72
2022/04/27 00:54:13;;;;;;;14.10;10.30;;;9.30;99.90;;;;;;4938477;29;20051;-71
2022/04/27 00:56:40;;;;;;;11.70;9.80;;;9.20;99.90;;;;;;4938202;29;20066;-71
2022/04/27 00:59:06;;;;;;;10.18;9.10;;;9.20;99.90;;;;;;4938605;29;20055;-72
2022/04/27 01:01:32;;;;;;;10.55;9.30;;;9.20;99.90;;;;;;4937689;29;20023;-72
2022/04/27 01:03:58;;;;;;;11.23;10.13;;;9.20;99.90;;;;;;4937010;29;20072;-71
2022/04/27 01:06:24;;;;;;;11.50;9.10;;;9.20;99.90;;;;;;4937640;29;20501;-71
2022/04/27 01:08:50;;;;;;;10.43;8.82;;;9.20;99.90;;;;;;4936712;29;20067;-71
2022/04/27 01:11:16;;;;;;;18.58;9.55;;;9.30;99.90;;;;;;4937632;29;20031;-71
2022/04/27 01:13:41;;;;;;;12.27;10.23;;;9.30;99.90;;;;;;4936876;29;20031;-71
2022/04/27 01:16:08;;;;;;;11.68;10.25;;;9.30;99.90;;;;;;4937802;29;20027;-72
2022/04/27 01:18:34;;;;;;;13.07;11.00;;;9.20;99.90;;;;;;4937939;29;20382;-72
2022/04/27 01:21:01;;;;;;;13.52;10.15;;;9.10;99.90;;;;;;4936892;29;20036;-71
2022/04/27 01:23:27;;;;;;;13.82;10.82;;;9.10;99.90;;;;;;4937320;29;20040;-72
2022/04/27 01:25:54;;;;;;;13.02;10.38;;;9.10;99.90;;;;;;4936433;29;20376;-71
2022/04/27 01:28:25;;;;;;;14.90;10.05;;;9.10;99.90;;;;;;4937328;29;20028;-73
2022/04/27 01:30:57;;;;;;;11.13;9.95;;;9.10;99.90;;;;;;4919645;29;20054;-72
2022/04/27 01:33:24;;;;;;;13.05;10.23;;;9.00;99.90;;;;;;4937452;29;20435;-71
2022/04/27 01:35:50;;;;;;;14.00;10.93;;;9.00;99.90;;;;;;4936625;29;20050;-72
2022/04/27 01:38:17;;;;;;;12.20;10.18;;;9.10;99.90;;;;;;4936720;29;20085;-70
2022/04/27 01:40:44;;;;;;;17.95;11.82;;;9.00;99.90;;;;;;4936506;29;20139;-70
2022/04/27 01:43:10;;;;;;;15.20;10.57;;;9.00;99.90;;;;;;4937124;29;20034;-72
2022/04/27 01:45:35;;;;;;;15.52;10.80;;;9.00;99.90;;;;;;4937079;29;20027;-71
2022/04/27 01:48:01;;;;;;;12.15;10.57;;;8.90;99.90;;;;;;4936055;29;20051;-71
2022/04/27 01:50:26;;;;;;;14.07;10.75;;;8.90;99.90;;;;;;4920092;29;20382;-72
2022/04/27 01:55:37;;;;;;;13.93;10.82;;;8.80;99.90;;;;;;4936859;29;20046;-73
2022/04/27 01:58:03;;;;;;;13.25;10.63;;;8.90;99.90;;;;;;4936103;29;20470;-71
2022/04/27 02:00:28;;;;;;;14.60;10.93;;;8.80;99.90;;;;;;4936740;29;20048;-72
2022/04/27 02:02:55;;;;;;;12.30;10.65;;;8.80;99.90;;;;;;4936030;29;20028;-71
2022/04/27 02:05:21;;;;;;;13.82;11.48;;;8.80;99.90;;;;;;4936929;29;20118;-71
2022/04/27 02:07:47;;;;;;;15.82;12.10;;;8.80;99.90;;;;;;4936017;29;20167;-70
2022/04/27 02:10:12;;;;;;;15.57;11.95;;;8.70;99.90;;;;;;4936999;29;20480;-71
2022/04/27 02:12:38;;;;;;;14.88;11.23;;;8.90;99.90;;;;;;4936575;29;20082;-71
2022/04/27 02:15:04;;;;;;;14.90;11.93;;;8.90;99.90;;;;;;4936022;29;20343;-70
2022/04/27 02:17:30;;;;;;;15.95;11.57;;;8.80;99.90;;;;;;4936444;29;20087;-71
2022/04/27 02:19:56;;;;;;;15.05;11.60;;;8.80;99.90;;;;;;4935914;29;20457;-71
2022/04/27 02:22:22;;;;;;;12.98;11.45;;;8.80;99.90;;;;;;4936523;29;20238;-73
2022/04/27 02:24:47;;;;;;;18.42;12.57;;;8.70;99.90;;;;;;4918650;29;20023;-70
2022/04/27 02:27:13;;;;;;;16.30;12.50;;;8.70;99.90;;;;;;4919396;29;20035;-70
2022/04/27 02:29:38;;;;;;;15.55;12.82;;;8.70;99.90;;;;;;4919229;29;20473;-71
2022/04/27 02:32:04;;;;;;;14.55;12.13;;;8.70;99.90;;;;;;4935355;29;20032;-71
2022/04/27 02:34:30;;;;;;;15.90;12.80;;;8.70;99.90;;;;;;4919252;29;20059;-71
2022/04/27 02:36:57;;;;;;;19.08;13.18;;;8.60;99.90;;;;;;4918429;29;20038;-70
2022/04/27 02:39:23;;;;;;;15.30;12.50;;;8.60;99.90;;;;;;4936130;29;20487;-71
2022/04/27 02:41:49;;;;;;;17.88;13.43;;;8.60;99.90;;;;;;4935422;29;20063;-69
2022/04/27 02:44:15;;;;;;;14.60;11.90;;;8.50;99.90;;;;;;4936040;29;20386;-70
2022/04/27 02:46:41;;;;;;;17.55;12.75;;;8.60;99.90;;;;;;4935906;29;20028;-71
2022/04/27 02:51:53;;;;;;;17.92;13.48;;;8.50;99.90;;;;;;4935359;29;20086;-70
2022/04/27 02:54:21;;;;;;;17.08;13.68;;;8.50;99.90;;;;;;4936045;29;20058;-70
2022/04/27 02:56:48;;;;;;;16.52;12.70;;;8.50;99.90;;;;;;4935137;29;20035;-70
2022/04/27 02:59:15;;;;;;;15.50;13.75;;;8.50;99.90;;;;;;4935511;29;20036;-71
2022/04/27 03:01:40;;;;;;;15.95;12.77;;;8.50;99.90;;;;;;4918514;29;20422;-71
2022/04/27 03:04:08;;;;;;;17.98;14.13;;;8.50;99.90;;;;;;4935166;29;20028;-71
2022/04/27 03:06:35;;;;;;;17.80;13.52;;;8.50;99.90;;;;;;4918495;29;20396;-71
2022/04/27 03:09:01;;;;;;;16.90;13.55;;;8.50;99.90;;;;;;4935194;29;20491;-72
2022/04/27 03:11:26;;;;;;;19.65;14.15;;;8.50;99.90;;;;;;4934362;29;20046;-71
2022/04/27 03:13:52;;;;;;;20.42;14.13;;;8.50;99.90;;;;;;4917549;29;20028;-70
2022/04/27 03:16:18;;;;;;;16.60;13.95;;;8.60;99.90;;;;;;4918128;29;20036;-71
2022/04/27 03:18:44;;;;;;;18.90;14.68;;;8.40;99.90;;;;;;4935440;29;20039;-71
2022/04/27 03:21:10;;;;;;;18.05;14.32;;;8.50;99.90;;;;;;4934718;29;20070;-71
2022/04/27 03:23:36;;;;;;;21.75;16.70;;;8.40;99.90;;;;;;4934815;29;20083;-71
2022/04/27 03:26:02;;;;;;;18.63;15.10;;;8.30;99.90;;;;;;4917379;29;20024;-71
2022/04/27 03:28:28;;;;;;;15.77;13.93;;;8.30;99.90;;;;;;4935234;29;20023;-71
2022/04/27 03:30:54;;;;;;;17.23;13.95;;;8.30;99.90;;;;;;4917232;29;20469;-71
2022/04/27 03:33:19;;;;;;;18.60;15.23;;;8.40;99.90;;;;;;4935477;29;20035;-72
2022/04/27 03:35:47;;;;;;;22.75;16.15;;;8.40;99.90;;;;;;4935241;29;20031;-72
2022/04/27 03:38:14;;;;;;;18.77;13.77;;;8.30;99.90;;;;;;4917139;29;20066;-72
2022/04/27 03:40:41;;;;;;;19.55;14.40;;;8.30;99.90;;;;;;4934820;29;20135;-72
2022/04/27 03:43:08;;;;;;;19.88;14.50;;;8.30;99.90;;;;;;4933979;29;20470;-71
2022/04/27 03:45:34;;;;;;;21.40;14.70;;;8.20;99.90;;;;;;4934432;29;20529;-71
2022/04/27 03:48:00;;;;;;;18.50;15.00;;;8.20;99.90;;;;;;4933804;29;20151;-70
2022/04/27 03:50:25;;;;;;;19.73;15.13;;;8.10;99.90;;;;;;4935039;29;20031;-70
2022/04/27 03:52:51;;;;;;;18.80;14.27;;;8.20;99.90;;;;;;4916631;29;20034;-70
2022/04/27 03:55:17;;;;;;;18.90;14.65;;;8.20;99.90;;;;;;4917342;29;20027;-71
2022/04/27 03:57:43;;;;;;;18.17;13.90;;;8.20;99.90;;;;;;4917628;29;20051;-71
2022/04/27 04:00:10;;;;;;;17.80;15.15;;;8.20;99.90;;;;;;4934109;29;20385;-70
2022/04/27 04:02:37;;;;;;;21.42;15.50;;;8.10;99.90;;;;;;4934324;29;20032;-70
2022/04/27 04:05:03;;;;;;;19.50;14.82;;;8.10;99.90;;;;;;4916913;29;20034;-71
2022/04/27 04:07:29;;;;;;;20.88;16.20;;;8.20;99.90;;;;;;4917160;29;20489;-72
2022/04/27 04:09:55;;;;;;;18.02;14.68;;;8.20;99.90;;;;;;4934018;29;20027;-71
2022/04/27 04:12:21;;;;;;;23.40;15.50;;;8.10;99.90;;;;;;4917032;29;20039;-71
2022/04/27 04:14:46;;;;;;;19.13;15.43;;;8.20;99.90;;;;;;4917238;29;20039;-71
2022/04/27 04:17:12;;;;;;;23.23;16.10;;;8.20;99.90;;;;;;4933448;29;20051;-71
2022/04/27 04:19:39;;;;;;;22.25;15.88;;;8.20;99.90;;;;;;4917414;29;20142;-72
2022/04/27 04:22:05;;;;;;;20.05;16.40;;;8.10;99.90;;;;;;4916473;29;20019;-71
2022/04/27 04:24:31;;;;;;;21.98;17.67;;;8.20;99.90;;;;;;4934368;29;20031;-71
2022/04/27 04:29:41;;;;;;;20.70;17.02;;;8.20;99.90;;;;;;4934275;29;20395;-70
2022/04/27 04:32:07;;;;;;;22.77;18.10;;;8.10;99.90;;;;;;4916569;29;20032;-70
2022/04/27 04:34:33;;;;;;;28.35;17.58;;;8.10;99.90;;;;;;4916894;29;20095;-71
2022/04/27 04:36:58;;;;;;;28.17;17.90;;;8.20;99.90;;;;;;4933467;29;20031;-71
2022/04/27 04:39:24;;;;;;;22.70;17.65;;;8.20;99.90;;;;;;4933737;29;20040;-71
2022/04/27 04:41:49;;;;;;;22.33;16.52;;;8.30;99.90;;;;;;4916986;29;20063;-70
2022/04/27 04:44:15;;;;;;;22.52;17.00;;;8.50;99.90;;;;;;4916306;29;20098;-70
2022/04/27 04:46:41;;;;;;;21.35;17.88;;;8.50;99.90;;;;;;4933922;29;20051;-71
2022/04/27 04:49:07;;;;;;;20.83;16.73;;;8.60;99.90;;;;;;4933106;29;20490;-70
2022/04/27 04:51:33;;;;;;;23.45;17.92;;;8.50;99.90;;;;;;4916745;29;20078;-71
2022/04/27 04:53:58;;;;;;;22.17;18.10;;;8.50;99.90;;;;;;4933080;29;20110;-71
2022/04/27 04:56:24;;;;;;;20.67;17.55;;;8.40;99.90;;;;;;4916952;29;20122;-71
2022/04/27 04:58:50;;;;;;;24.02;18.13;;;8.50;99.90;;;;;;4916830;29;20034;-72
2022/04/27 05:01:15;;;;;;;21.20;17.17;;;8.50;99.90;;;;;;4915954;29;20437;-71
2022/04/27 05:03:41;;;;;;;23.08;18.60;;;8.50;99.90;;;;;;4916808;29;20441;-71
2022/04/27 05:06:07;;;;;;;23.88;18.02;;;8.50;99.90;;;;;;4933408;29;20043;-71
2022/04/27 05:08:32;;;;;;;23.80;19.23;;;8.50;99.90;;;;;;4933630;29;20028;-71
2022/04/27 05:10:58;;;;;;;24.30;19.20;;;8.50;99.90;;;;;;4933070;29;20456;-72
2022/04/27 05:13:24;;;;;;;19.88;15.63;;;8.50;99.90;;;;;;4934122;29;20028;-71
2022/04/27 05:15:50;;;;;;;19.10;15.48;;;8.50;99.90;;;;;;4933799;29;20589;-71
2022/04/27 05:18:17;;;;;;;18.63;15.80;;;8.40;99.90;;;;;;4933146;29;20366;-71
2022/04/27 05:20:43;;;;;;;20.77;15.75;;;8.50;99.90;;;;;;4933539;29;20035;-70
2022/04/27 05:23:11;;;;;;;19.48;14.82;;;8.30;99.90;;;;;;4932947;29;20036;-72
2022/04/27 05:25:37;;;;;;;18.33;14.90;;;8.30;99.90;;;;;;4933366;29;20028;-71
2022/04/27 05:28:03;;;;;;;21.05;17.45;;;8.20;99.90;;;;;;4932715;29;20031;-71
2022/04/27 05:33:17;;;;;;;19.63;15.93;;;8.30;99.90;;;;;;4932677;29;20468;-72
2022/04/27 05:35:42;;;;;;;18.83;15.50;;;8.20;99.90;;;;;;4936607;29;20031;-71
2022/04/27 05:38:09;;;;;;;17.20;14.23;;;8.30;99.90;;;;;;4919102;29;20043;-70
2022/04/27 05:40:36;;;;;;;19.02;14.82;;;8.50;99.90;;;;;;4919930;29;20038;-71
2022/04/27 05:43:06;;;;;;;18.05;13.70;;;8.70;99.90;;;;;;4918920;29;20032;-70
2022/04/27 05:45:32;;;;;;;19.75;16.02;;;8.60;99.90;;;;;;4936798;29;20059;-71
2022/04/27 05:47:59;;;;;;;19.20;13.55;;;8.50;99.90;;;;;;4917844;29;20052;-72
2022/04/27 05:50:24;;;;;;;19.58;15.02;;;8.70;99.90;;;;;;4936962;29;20491;-72
2022/04/27 05:52:56;;;;;;;18.60;13.88;;;8.50;99.90;;;;;;4936811;29;20055;-72
2022/04/27 05:55:22;;;;;;;18.10;14.57;;;8.50;99.90;;;;;;4918632;29;20043;-73
2022/04/27 05:57:48;;;;;;;19.83;14.95;;;8.60;99.90;;;;;;4918881;29;20036;-71
2022/04/27 06:00:15;;;;;;;17.23;13.40;;;8.50;99.90;;;;;;4918290;29;20102;-72
2022/04/27 06:02:41;;;;;;;16.70;14.50;;;8.40;99.90;;;;;;4937823;29;20476;-72
2022/04/27 06:05:08;;;;;;;18.67;13.95;;;8.70;99.90;;;;;;4918561;29;20059;-73
2022/04/27 06:07:35;;;;;;;19.48;14.23;;;8.70;99.90;;;;;;4919062;29;20102;-73
2022/04/27 06:10:05;;;;;;;18.05;15.07;;;8.70;99.90;;;;;;4918383;29;20034;-72
2022/04/27 06:12:36;;;;;;;19.92;15.88;;;8.90;99.90;;;;;;4936060;29;20114;-71
2022/04/27 06:15:10;;;;;;;19.92;15.52;;;8.80;99.90;;;;;;4918357;29;20187;-71
2022/04/27 06:17:36;;;;;;;20.40;15.35;;;9.00;99.90;;;;;;4936040;29;20044;-71
2022/04/27 06:20:02;;;;;;;21.40;15.65;;;9.00;99.90;;;;;;4918045;29;20040;-71
2022/04/27 06:22:28;;;;;;;18.05;14.43;;;9.20;99.90;;;;;;4935889;29;20078;-70
2022/04/27 06:24:53;;;;;;;20.05;14.60;;;9.10;99.90;;;;;;4935721;29;20040;-72
2022/04/27 06:27:19;;;;;;;19.67;15.30;;;9.20;99.90;;;;;;4934613;29;20180;-70
2022/04/27 06:29:45;;;;;;;22.02;15.52;;;9.40;99.90;;;;;;4918635;29;20039;-71
2022/04/27 06:32:10;;;;;;;20.27;14.80;;;9.40;99.90;;;;;;4935071;29;20032;-72
2022/04/27 06:34:36;;;;;;;18.33;16.00;;;9.80;99.90;;;;;;4934569;29;20119;-72
2022/04/27 06:37:02;;;;;;;19.52;15.25;;;9.70;99.90;;;;;;4933371;29;20032;-72
2022/04/27 06:39:28;;;;;;;19.52;14.70;;;10.10;99.90;;;;;;4918277;29;20043;-75
2022/04/27 06:41:53;;;;;;;20.80;13.40;;;11.20;99.90;;;;;;4918233;29;20031;-71
2022/04/27 06:44:19;;;;;;;20.27;16.42;;;12.00;99.90;;;;;;4933155;29;20394;-73
2022/04/27 06:46:44;;;;;;;21.33;16.80;;;11.70;99.90;;;;;;4924441;29;20055;-77
2022/04/27 06:49:10;;;;;;;22.48;16.48;;;11.60;99.90;;;;;;4917011;29;20055;-76
2022/04/27 06:51:35;;;;;;;29.20;17.23;;;11.50;99.90;;;;;;4917936;29;20050;-74
2022/04/27 06:54:01;;;;;;;21.05;16.55;;;11.70;99.90;;;;;;4917842;29;20024;-71
2022/04/27 06:56:27;;;;;;;18.13;13.65;;;11.80;99.90;;;;;;4934744;29;20119;-70
2022/04/27 06:58:53;;;;;;;18.67;12.18;;;12.30;99.90;;;;;;4917891;29;20110;-73
2022/04/27 07:01:19;;;;;;;17.67;14.00;;;13.40;99.90;;;;;;4915900;29;20043;-71
2022/04/27 07:03:45;;;;;;;23.98;15.55;;;13.80;99.90;;;;;;4909185;29;20035;-72
2022/04/27 07:06:12;;;;;;;31.08;15.95;;;13.70;99.90;;;;;;4915083;29;20526;-71
2022/04/27 07:08:37;;;;;;;16.15;14.30;;;13.40;99.90;;;;;;4930559;29;20031;-71
2022/04/27 07:11:03;;;;;;;19.52;15.32;;;13.50;99.90;;;;;;4917363;29;20035;-72
2022/04/27 07:13:29;;;;;;;17.55;15.00;;;13.30;99.90;;;;;;4916492;29;20043;-71
2022/04/27 07:16:00;;;;;;;18.85;13.77;;;13.20;99.90;;;;;;4915225;29;20470;-72
2022/04/27 07:18:29;;;;;;;20.13;15.75;;;13.00;99.90;;;;;;4912883;29;20039;-71
2022/04/27 07:20:55;;;;;;;24.20;16.27;;;13.10;99.90;;;;;;4917328;29;20036;-73
2022/04/27 07:23:20;;;;;;;27.63;12.77;;;13.10;99.90;;;;;;4908780;29;20034;-69
2022/04/27 07:25:46;;;;;;;24.15;15.70;;;13.50;99.90;;;;;;4915491;29;20086;-71
2022/04/27 07:28:12;;;;;;;18.30;14.40;;;13.60;99.90;;;;;;4915173;29;20513;-72
2022/04/27 07:30:37;;;;;;;18.92;14.50;;;13.80;99.90;;;;;;4909634;29;20423;-71
2022/04/27 07:33:04;;;;;;;21.52;14.02;;;13.80;99.90;;;;;;4916700;29;20024;-71
2022/04/27 07:35:30;;;;;;;16.98;13.48;;;14.00;99.90;;;;;;4933553;29;20123;-71
2022/04/27 07:37:55;;;;;;;22.85;14.02;;;14.10;99.90;;;;;;4932213;29;20043;-71
2022/04/27 07:40:21;;;;;;;18.20;14.55;;;14.00;99.90;;;;;;4916145;29;20047;-70
2022/04/27 07:42:48;;;;;;;28.40;13.85;;;13.90;99.90;;;;;;4911598;29;20534;-70
2022/04/27 07:45:15;;;;;;;19.95;15.18;;;14.10;99.90;;;;;;4931165;29;20086;-72
2022/04/27 07:47:45;;;;;;;17.98;13.90;;;14.30;99.90;;;;;;4924565;29;20056;-73
2022/04/27 07:50:16;;;;;;;18.40;13.93;;;14.70;99.90;;;;;;4931465;29;20158;-71
2022/04/27 07:52:42;;;;;;;18.13;14.95;;;14.70;99.90;;;;;;4933589;29;20086;-71
2022/04/27 07:55:09;;;;;;;16.73;13.48;;;15.00;99.90;;;;;;4933121;29;20114;-71
2022/04/27 07:57:35;;;;;;;20.00;14.25;;;15.20;99.90;;;;;;4918813;29;20139;-70
2022/04/27 08:00:03;;;;;;;16.05;12.65;;;15.40;99.90;;;;;;4921715;29;20059;-70
2022/04/27 08:02:29;;;;;;;17.85;13.25;;;15.70;99.90;;;;;;4925745;29;20042;-72
2022/04/27 08:04:54;;;;;;;14.77;13.23;;;15.80;99.90;;;;;;4914027;29;20115;-70
2022/04/27 08:07:20;;;;;;;17.88;13.38;;;16.10;99.90;;;;;;4901537;29;20043;-70
2022/04/27 08:09:45;;;;;;;13.27;11.85;;;16.00;99.90;;;;;;4923159;29;20036;-70
2022/04/27 08:12:11;;;;;;;19.15;12.52;;;16.00;99.90;;;;;;4916637;29;20036;-71
2022/04/27 08:14:37;;;;;;;13.63;11.18;;;16.30;99.90;;;;;;4931978;29;20020;-70
2022/04/27 08:17:03;;;;;;;19.88;12.18;;;16.30;99.90;;;;;;4929446;29;20039;-69
2022/04/27 08:19:29;;;;;;;13.75;12.02;;;16.30;99.90;;;;;;4911248;29;20469;-72
2022/04/27 08:21:55;;;;;;;15.82;12.10;;;16.30;99.90;;;;;;4926997;29;20036;-71
2022/04/27 08:24:24;;;;;;;16.50;11.98;;;16.40;99.90;;;;;;4905928;29;20118;-72
2022/04/27 08:26:50;;;;;;;14.00;11.43;;;16.80;99.90;;;;;;4910777;29;20127;-70
2022/04/27 08:29:17;;;;;;;16.35;10.95;;;17.00;99.90;;;;;;4898617;29;20044;-71
2022/04/27 08:31:42;;;;;;;14.50;11.63;;;17.30;99.90;;;;;;4902231;29;20210;-70
2022/04/27 08:34:08;;;;;;;13.68;10.77;;;17.60;99.90;;;;;;4907121;29;20601;-72
2022/04/27 08:36:34;;;;;;;14.30;12.30;;;17.90;99.90;;;;;;4925969;29;20039;-73
2022/04/27 08:39:01;;;;;;;15.75;11.63;;;18.00;99.90;;;;;;4901259;29;20035;-73
2022/04/27 08:41:28;;;;;;;13.60;11.18;;;18.10;99.90;;;;;;4900503;29;20036;-72
2022/04/27 08:43:54;;;;;;;17.80;10.38;;;18.10;99.70;;;;;;4913525;29;20028;-71
2022/04/27 08:46:20;;;;;;;13.07;10.85;;;18.30;99.10;;;;;;4907454;29;20040;-72
2022/04/27 08:48:49;;;;;;;12.02;10.27;;;18.40;98.60;;;;;;4925540;29;20044;-72
2022/04/27 08:51:16;;;;;;;14.75;11.60;;;18.30;98.70;;;;;;4911156;29;20055;-71
2022/04/27 08:53:42;;;;;;;17.13;11.15;;;18.30;98.10;;;;;;4932813;29;20396;-72
2022/04/27 08:56:08;;;;;;;12.30;10.80;;;18.30;98.60;;;;;;4915156;29;20032;-70
2022/04/27 08:58:34;;;;;;;11.32;10.13;;;18.30;98.40;;;;;;4920347;29;20037;-71
2022/04/27 09:01:00;;;;;;;12.10;10.05;;;18.50;99.20;;;;;;4932955;29;20119;-72
2022/04/27 09:03:34;;;;;;;14.23;11.10;;;18.10;98.60;;;;;;4932679;29;20127;-71
2022/04/27 09:06:02;;;;;;;11.77;9.73;;;17.70;98.50;;;;;;4932846;29;20035;-71
2022/04/27 09:08:44;;;;;;;13.82;9.65;;;17.70;99.60;;;;;;4932821;29;20239;-71
2022/04/27 09:11:16;;;;;;;13.60;11.00;;;18.50;99.50;;;;;;4915338;29;20032;-72
2022/04/27 09:13:50;;;;;;;18.92;11.05;;;18.10;98.10;;;;;;4931690;29;20095;-72
2022/04/27 09:16:18;;;;;;;18.70;11.95;;;18.70;98.60;;;;;;4935422;29;20087;-72
2022/04/27 09:21:58;;;;;;;11.50;10.02;;;19.00;98.00;;;;;;4915948;29;20032;-72
2022/04/27 09:24:24;;;;;;;15.60;9.75;;;19.20;97.50;;;;;;4935744;29;20098;-72
2022/04/27 09:27:22;;;;;;;16.80;11.13;;;19.50;97.90;;;;;;4936751;29;20131;-74
2022/04/27 09:30:02;;;;;;;13.18;9.57;;;19.70;96.60;;;;;;4905136;29;20120;-70
2022/04/27 09:32:29;;;;;;;14.32;8.85;;;20.00;99.90;;;;;;4918826;29;20114;-71
2022/04/27 09:34:56;;;;;;;12.82;9.77;;;20.30;99.90;;;;;;4936868;29;20156;-74
2022/04/27 09:37:30;;;;;;;10.07;9.02;;;20.60;95.60;;;;;;4916588;29;20087;-72
2022/04/27 09:40:08;;;;;;;10.60;9.50;;;20.30;95.30;;;;;;4917749;29;20131;-74
2022/04/27 09:42:40;;;;;;;12.75;8.98;;;20.10;94.80;;;;;;4935353;29;20031;-72
2022/04/27 09:45:16;;;;;;;9.73;7.55;;;20.40;95.20;;;;;;4936486;29;20162;-73
2022/04/27 09:47:49;;;;;;;10.05;8.70;;;20.60;95.20;;;;;;4935800;29;20067;-72
2022/04/27 09:50:16;;;;;;;16.15;9.80;;;20.60;95.00;;;;;;4935490;29;20028;-71
2022/04/27 09:52:43;;;;;;;12.27;9.70;;;20.60;94.90;;;;;;4917174;29;20042;-73
2022/04/27 09:55:10;;;;;;;10.52;8.23;;;21.10;95.00;;;;;;4932570;29;20039;-72
2022/04/27 09:57:39;;;;;;;8.73;7.85;;;21.60;94.10;;;;;;4932007;29;20042;-73
2022/04/27 10:00:06;;;;;;;17.73;8.85;;;21.70;93.60;;;;;;4918069;29;20028;-73
2022/04/27 10:02:34;;;;;;;9.75;7.85;;;21.90;92.70;;;;;;4927979;29;20323;-72
2022/04/27 10:05:01;;;;;;;10.77;9.10;;;21.90;92.60;;;;;;4918882;29;20063;-73
2022/04/27 10:07:31;;;;;;;13.70;7.93;;;21.60;91.00;;;;;;4917552;29;20028;-73
2022/04/27 10:09:58;;;;;;;8.52;6.90;;;21.40;92.40;;;;;;4935651;29;20032;-70
2022/04/27 10:12:24;;;;;;;9.90;8.43;;;21.60;95.90;;;;;;4930838;29;20128;-71
2022/04/27 10:14:49;;;;;;;11.15;8.93;;;21.50;90.80;;;;;;4927203;29;20430;-75
2022/04/27 10:17:15;;;;;;;10.90;7.65;;;21.30;91.40;;;;;;4916480;29;20038;-72
2022/04/27 10:19:50;;;;;;;10.13;8.23;;;21.70;91.80;;;;;;4918120;29;20122;-72
2022/04/27 10:22:31;;;;;;;10.20;8.80;;;20.90;91.50;;;;;;4932753;29;20024;-74
2022/04/27 10:25:03;;;;;;;10.82;9.73;;;21.00;92.10;;;;;;4935823;29;20024;-73
2022/04/27 10:27:40;;;;;;;10.60;8.13;;;20.90;92.10;;;;;;4934763;29;20035;-74
2022/04/27 10:30:11;;;;;;;11.88;8.23;;;21.70;91.90;;;;;;4918448;29;20083;-73
2022/04/27 10:32:51;;;;;;;9.18;8.18;;;22.10;91.10;;;;;;4935171;29;20028;-74
2022/04/27 10:35:30;;;;;;;9.48;6.53;;;21.80;90.90;;;;;;4917681;29;20114;-72
2022/04/27 10:37:57;;;;;;;11.85;7.53;;;22.40;90.80;;;;;;4936205;29;20052;-72
2022/04/27 10:40:40;;;;;;;9.32;7.00;;;22.40;88.30;;;;;;4917621;29;20400;-72
2022/04/27 10:43:11;;;;;;;8.20;6.03;;;22.60;89.40;;;;;;4918571;29;20098;-72
2022/04/27 10:45:37;;;;;;;8.52;6.40;;;22.80;88.50;;;;;;4917851;29;20028;-74
2022/04/27 10:48:13;;;;;;;7.03;6.10;;;23.20;87.40;;;;;;4917181;29;20059;-73
2022/04/27 10:50:39;;;;;;;10.80;6.13;;;23.40;87.10;;;;;;4934547;29;20114;-73
2022/04/27 10:53:24;;;;;;;7.05;6.35;;;23.60;84.50;;;;;;4935289;29;20051;-73
2022/04/27 10:55:53;;;;;;;10.35;6.88;;;23.90;84.20;;;;;;4934766;29;20034;-74
2022/04/27 10:58:33;;;;;;;6.38;5.78;;;23.40;82.00;;;;;;4934075;29;20063;-74
2022/04/27 11:01:01;;;;;;;7.75;6.53;;;23.60;82.10;;;;;;4927848;23;20075;-66
2022/04/27 11:03:29;;;;;;;9.85;6.03;;;23.70;81.80;;;;;;4895187;29;20036;-66
2022/04/27 11:06:00;;;;;;;7.43;6.03;;;23.90;82.50;;;;;;4897366;29;20039;-65
2022/04/27 11:08:34;;;;;;;6.22;4.63;;;23.60;80.80;;;;;;4896423;29;20160;-66
2022/04/27 11:11:07;;;;;;;8.50;4.93;;;24.00;80.80;;;;;;4896698;29;20440;-65
2022/04/27 11:13:35;;;;;;;8.00;5.03;;;24.00;79.00;;;;;;4896370;29;20029;-66
2022/04/27 11:16:11;;;;;;;7.45;5.20;;;24.10;78.60;;;;;;4896799;29;20033;-65
2022/04/27 11:18:53;;;;;;;4.28;3.65;;;23.90;76.90;;;;;;4896243;29;20116;-66
2022/04/27 11:21:19;;;;;;;6.20;4.20;;;23.90;75.00;;;;;;4895644;29;20044;-66
2022/04/27 11:23:45;;;;;;;4.70;4.30;;;22.80;76.90;;;;;;4879256;29;20048;-66
2022/04/27 11:26:13;;;;;;;4.85;4.30;;;22.80;75.30;;;;;;4896315;29;20121;-65
2022/04/27 11:28:41;;;;;;;6.00;3.55;;;22.80;75.80;;;;;;4878818;29;20473;-64
2022/04/27 11:31:07;;;;;;;5.13;3.80;;;22.90;74.80;;;;;;4896251;29;20028;-65
2022/04/27 11:33:39;;;;;;;4.40;3.03;;;23.40;73.50;;;;;;4878662;29;20040;-65
2022/04/27 11:36:05;;;;;;;4.75;3.10;;;24.00;73.50;;;;;;4896236;29;20068;-66
2022/04/27 11:38:38;;;;;;;3.75;2.85;;;24.30;70.60;;;;;;4895562;29;20039;-65
2022/04/27 11:41:12;;;;;;;8.90;3.30;;;24.80;70.60;;;;;;4894967;29;20037;-65
2022/04/27 11:43:38;;;;;;;5.40;4.32;;;25.20;70.80;;;;;;4895574;29;20585;-66
2022/04/27 11:46:04;;;;;;;4.80;3.38;;;25.20;71.20;;;;;;4896022;29;20029;-65
2022/04/27 11:48:30;;;;;;;4.65;3.25;;;25.10;72.80;;;;;;4895415;29;20117;-66
2022/04/27 11:51:01;;;;;;;7.22;3.08;;;25.30;70.30;;;;;;4895499;29;20096;-65
2022/04/27 11:53:27;;;;;;;4.80;2.63;;;25.20;68.60;;;;;;4893725;29;20072;-66
2022/04/27 11:55:54;;;;;;;2.33;2.17;;;25.60;68.00;;;;;;4896083;29;20069;-65
2022/04/27 11:58:25;;;;;;;5.28;2.78;;;25.60;65.60;;;;;;4895358;29;20044;-67
2022/04/27 12:00:58;;;;;;;5.25;2.97;;;25.70;64.30;;;;;;4895739;29;20439;-66
2022/04/27 12:03:24;;;;;;;4.22;2.20;;;25.60;65.80;;;;;;4895729;29;20486;-65
2022/04/27 12:05:52;;;;;;;3.97;2.63;;;25.40;64.30;;;;;;4879108;29;20028;-65
2022/04/27 12:08:23;;;;;;;2.65;2.45;;;25.50;63.90;;;;;;4879048;29;20407;-65
2022/04/27 12:10:49;;;;;;;4.68;4.18;;;25.00;61.90;;;;;;4894525;29;20114;-65
2022/04/27 12:13:17;;;;;;;3.17;2.83;;;23.30;65.30;;;;;;4895188;29;20108;-65
2022/04/27 12:15:45;;;;;;;4.28;2.90;;;23.80;65.10;;;;;;4894679;29;20029;-66
2022/04/27 12:18:24;;;;;;;5.32;2.80;;;24.30;66.20;;;;;;4895845;29;20028;-65
2022/04/27 12:20:50;;;;;;;4.22;2.63;;;24.70;62.70;;;;;;4895602;29;20136;-66
2022/04/27 12:23:23;;;;;;;2.70;2.40;;;25.20;62.70;;;;;;4878927;29;20052;-65
2022/04/27 12:25:55;;;;;;;3.63;2.55;;;25.50;62.90;;;;;;4895721;29;20170;-65
2022/04/27 12:28:26;;;;;;;4.15;2.85;;;25.50;61.60;;;;;;4893741;29;20129;-76
2022/04/27 12:30:53;;;;;;;;;;;25.70;63.00;;;;;;4896296;29;20040;-65
2022/04/27 12:33:27;;;;;;;3.28;2.30;;;26.00;61.90;;;;;;4895871;29;19952;-64
2022/04/27 12:39:11;;;;;;;5.85;2.60;;;26.00;61.50;;;;;;4894995;29;20055;-64
2022/04/27 12:41:44;;;;;;;4.25;2.60;;;26.10;63.20;;;;;;4895207;29;20041;-66
2022/04/27 12:44:12;;;;;;;3.90;2.25;;;26.20;62.30;;;;;;4879911;29;20517;-65
2022/04/27 12:47:00;;;;;;;3.05;1.95;;;25.80;62.30;;;;;;4898994;29;20123;-66
2022/04/27 12:49:30;;;;;;;2.85;1.95;;;25.50;62.30;;;;;;4898729;29;20510;-66
2022/04/27 12:52:20;;;;;;;3.13;2.00;;;25.50;61.70;;;;;;4899205;29;20124;-66
2022/04/27 12:54:47;;;;;;;3.25;1.88;;;25.10;60.10;;;;;;4898975;29;20736;-65
2022/04/27 12:57:14;;;;;;;2.25;1.88;;;24.70;60.00;;;;;;4899330;29;20064;-65